Terminal Aerodrome Forecast
Issued by NWS

Home | Current Version | Previous Version | Text Only | Print | Product List | Glossary On
Versions: 1 2 3 4 5 6 7 8 9 10 11 12 13 14 15 16 17 18 19 20
000
FTUS46 KLOX 181700 RRA
TAFBUR
TAF
KBUR 181740Z 1818/1918 16005KT P6SM OVC035
     FM182000 18008KT P6SM BKN035
     FM190400 VRB03KT P6SM OVC015=

USA.gov is the U.S. government's official web portal to all federal, state and local government web resources and services.